sensor_id;sensor_type;location;lat;lon;timestamp;temperature;humidity
76857;DHT22;69705;44.686;37.628;2023-09-07T00:00:30;22.22;62.40
76857;DHT22;69705;44.686;37.628;2023-09-07T00:02:57;22.23;62.41
76857;DHT22;69705;44.686;37.628;2023-09-07T00:05:24;22.22;62.40
76857;DHT22;69705;44.686;37.628;2023-09-07T00:07:51;22.21;62.73
76857;DHT22;69705;44.686;37.628;2023-09-07T00:10:18;22.23;62.19
76857;DHT22;69705;44.686;37.628;2023-09-07T00:12:45;22.21;62.24
76857;DHT22;69705;44.686;37.628;2023-09-07T00:15:12;22.22;62.33
76857;DHT22;69705;44.686;37.628;2023-09-07T00:17:39;22.20;62.46
76857;DHT22;69705;44.686;37.628;2023-09-07T00:20:06;22.19;62.56
76857;DHT22;69705;44.686;37.628;2023-09-07T00:22:38;22.19;62.44
76857;DHT22;69705;44.686;37.628;2023-09-07T00:25:06;22.20;62.41
76857;DHT22;69705;44.686;37.628;2023-09-07T00:27:36;22.17;62.58
76857;DHT22;69705;44.686;37.628;2023-09-07T00:30:03;22.12;62.79
76857;DHT22;69705;44.686;37.628;2023-09-07T00:32:36;22.11;62.77
76857;DHT22;69705;44.686;37.628;2023-09-07T00:35:05;22.08;62.91
76857;DHT22;69705;44.686;37.628;2023-09-07T00:37:33;22.05;63.05
76857;DHT22;69705;44.686;37.628;2023-09-07T00:39:59;22.01;63.44
76857;DHT22;69705;44.686;37.628;2023-09-07T00:42:27;21.95;63.49
76857;DHT22;69705;44.686;37.628;2023-09-07T00:44:54;21.91;63.77
76857;DHT22;69705;44.686;37.628;2023-09-07T00:47:21;21.85;63.63
76857;DHT22;69705;44.686;37.628;2023-09-07T00:49:50;21.80;63.76
76857;DHT22;69705;44.686;37.628;2023-09-07T00:52:17;21.77;63.79
76857;DHT22;69705;44.686;37.628;2023-09-07T00:54:45;21.76;63.85
76857;DHT22;69705;44.686;37.628;2023-09-07T00:57:12;21.73;63.84
76857;DHT22;69705;44.686;37.628;2023-09-07T00:59:39;21.68;64.09
76857;DHT22;69705;44.686;37.628;2023-09-07T01:02:05;21.59;64.41
76857;DHT22;69705;44.686;37.628;2023-09-07T01:04:32;21.51;64.65
76857;DHT22;69705;44.686;37.628;2023-09-07T01:07:13;21.44;64.89
76857;DHT22;69705;44.686;37.628;2023-09-07T01:09:41;21.36;65.39
76857;DHT22;69705;44.686;37.628;2023-09-07T01:12:14;21.31;65.25
76857;DHT22;69705;44.686;37.628;2023-09-07T01:14:42;21.24;65.75
76857;DHT22;69705;44.686;37.628;2023-09-07T01:17:09;21.19;65.72
76857;DHT22;69705;44.686;37.628;2023-09-07T01:19:40;21.16;65.88
76857;DHT22;69705;44.686;37.628;2023-09-07T01:22:10;21.08;66.11
76857;DHT22;69705;44.686;37.628;2023-09-07T01:24:38;21.05;66.05
76857;DHT22;69705;44.686;37.628;2023-09-07T01:27:05;20.99;66.28
76857;DHT22;69705;44.686;37.628;2023-09-07T01:29:34;20.96;66.43
76857;DHT22;69705;44.686;37.628;2023-09-07T01:32:01;20.93;66.31
76857;DHT22;69705;44.686;37.628;2023-09-07T01:34:28;20.92;66.29
76857;DHT22;69705;44.686;37.628;2023-09-07T01:36:55;20.88;66.46
76857;DHT22;69705;44.686;37.628;2023-09-07T01:39:22;20.84;66.33
76857;DHT22;69705;44.686;37.628;2023-09-07T01:41:49;20.86;66.06
76857;DHT22;69705;44.686;37.628;2023-09-07T01:44:16;20.86;66.40
76857;DHT22;69705;44.686;37.628;2023-09-07T01:46:43;20.86;66.05
76857;DHT22;69705;44.686;37.628;2023-09-07T01:49:10;20.86;66.04
76857;DHT22;69705;44.686;37.628;2023-09-07T01:51:37;20.85;65.85
76857;DHT22;69705;44.686;37.628;2023-09-07T01:54:04;20.85;65.72
76857;DHT22;69705;44.686;37.628;2023-09-07T01:56:32;20.84;65.53
76857;DHT22;69705;44.686;37.628;2023-09-07T01:58:59;20.86;65.46
76857;DHT22;69705;44.686;37.628;2023-09-07T02:01:29;20.83;65.46
76857;DHT22;69705;44.686;37.628;2023-09-07T02:03:56;20.81;65.87
76857;DHT22;69705;44.686;37.628;2023-09-07T02:06:23;20.81;64.95
76857;DHT22;69705;44.686;37.628;2023-09-07T02:08:50;20.75;65.75
76857;DHT22;69705;44.686;37.628;2023-09-07T02:11:17;20.70;65.75
76857;DHT22;69705;44.686;37.628;2023-09-07T02:13:47;20.62;65.84
76857;DHT22;69705;44.686;37.628;2023-09-07T02:16:14;20.60;66.04
76857;DHT22;69705;44.686;37.628;2023-09-07T02:18:42;20.55;66.34
76857;DHT22;69705;44.686;37.628;2023-09-07T02:21:13;20.53;65.86
76857;DHT22;69705;44.686;37.628;2023-09-07T02:23:40;20.45;66.23
76857;DHT22;69705;44.686;37.628;2023-09-07T02:26:10;20.42;66.24
76857;DHT22;69705;44.686;37.628;2023-09-07T02:28:37;20.40;66.21
76857;DHT22;69705;44.686;37.628;2023-09-07T02:31:05;20.36;66.33
76857;DHT22;69705;44.686;37.628;2023-09-07T02:33:33;20.31;66.74
76857;DHT22;69705;44.686;37.628;2023-09-07T02:36:00;20.29;66.56
76857;DHT22;69705;44.686;37.628;2023-09-07T02:38:27;20.27;66.78
76857;DHT22;69705;44.686;37.628;2023-09-07T02:40:55;20.24;66.94
76857;DHT22;69705;44.686;37.628;2023-09-07T02:43:22;20.27;66.47
76857;DHT22;69705;44.686;37.628;2023-09-07T02:45:50;20.27;66.42
76857;DHT22;69705;44.686;37.628;2023-09-07T02:48:18;20.26;66.41
76857;DHT22;69705;44.686;37.628;2023-09-07T02:50:44;20.21;66.46
76857;DHT22;69705;44.686;37.628;2023-09-07T02:53:16;20.18;66.65
76857;DHT22;69705;44.686;37.628;2023-09-07T02:55:43;20.17;66.69
76857;DHT22;69705;44.686;37.628;2023-09-07T02:58:12;20.13;66.73
76857;DHT22;69705;44.686;37.628;2023-09-07T03:00:45;20.14;66.74
76857;DHT22;69705;44.686;37.628;2023-09-07T03:03:15;20.13;66.72
76857;DHT22;69705;44.686;37.628;2023-09-07T03:05:44;20.12;66.93
76857;DHT22;69705;44.686;37.628;2023-09-07T03:08:12;20.12;66.98
76857;DHT22;69705;44.686;37.628;2023-09-07T03:10:39;20.09;66.38
76857;DHT22;69705;44.686;37.628;2023-09-07T03:13:07;20.06;66.53
76857;DHT22;69705;44.686;37.628;2023-09-07T03:15:34;20.04;66.90
76857;DHT22;69705;44.686;37.628;2023-09-07T03:18:02;20.02;66.90
76857;DHT22;69705;44.686;37.628;2023-09-07T03:20:33;19.99;66.93
76857;DHT22;69705;44.686;37.628;2023-09-07T03:23:01;19.96;67.15
76857;DHT22;69705;44.686;37.628;2023-09-07T03:25:28;19.97;66.82
76857;DHT22;69705;44.686;37.628;2023-09-07T03:27:55;19.96;66.72
76857;DHT22;69705;44.686;37.628;2023-09-07T03:30:21;19.97;67.03
76857;DHT22;69705;44.686;37.628;2023-09-07T03:32:48;19.95;66.61
76857;DHT22;69705;44.686;37.628;2023-09-07T03:35:14;19.95;66.64
76857;DHT22;69705;44.686;37.628;2023-09-07T03:37:43;19.96;66.99
76857;DHT22;69705;44.686;37.628;2023-09-07T03:40:10;19.92;67.27
76857;DHT22;69705;44.686;37.628;2023-09-07T03:42:38;19.94;67.22
76857;DHT22;69705;44.686;37.628;2023-09-07T03:45:06;19.95;67.28
76857;DHT22;69705;44.686;37.628;2023-09-07T03:47:34;19.97;67.33
76857;DHT22;69705;44.686;37.628;2023-09-07T03:50:01;20.03;67.33
76857;DHT22;69705;44.686;37.628;2023-09-07T03:52:30;20.10;66.75
76857;DHT22;69705;44.686;37.628;2023-09-07T03:55:00;20.16;66.99
76857;DHT22;69705;44.686;37.628;2023-09-07T03:57:27;20.21;66.87
76857;DHT22;69705;44.686;37.628;2023-09-07T03:59:54;20.25;66.83
76857;DHT22;69705;44.686;37.628;2023-09-07T04:02:24;20.31;66.86
76857;DHT22;69705;44.686;37.628;2023-09-07T04:04:52;20.39;67.15
76857;DHT22;69705;44.686;37.628;2023-09-07T04:07:19;20.47;66.71
76857;DHT22;69705;44.686;37.628;2023-09-07T04:09:46;20.55;66.45
76857;DHT22;69705;44.686;37.628;2023-09-07T04:12:13;20.63;66.76
76857;DHT22;69705;44.686;37.628;2023-09-07T04:14:39;20.72;66.45
76857;DHT22;69705;44.686;37.628;2023-09-07T04:17:08;20.77;66.35
76857;DHT22;69705;44.686;37.628;2023-09-07T04:19:34;20.85;65.54
76857;DHT22;69705;44.686;37.628;2023-09-07T04:22:01;20.95;65.37
76857;DHT22;69705;44.686;37.628;2023-09-07T04:24:29;21.06;65.01
76857;DHT22;69705;44.686;37.628;2023-09-07T04:27:00;21.19;64.44
76857;DHT22;69705;44.686;37.628;2023-09-07T04:29:28;21.28;64.43
76857;DHT22;69705;44.686;37.628;2023-09-07T04:31:54;21.35;64.11
76857;DHT22;69705;44.686;37.628;2023-09-07T04:34:22;21.49;63.84
76857;DHT22;69705;44.686;37.628;2023-09-07T04:36:49;21.59;62.98
76857;DHT22;69705;44.686;37.628;2023-09-07T04:39:16;21.70;62.43
76857;DHT22;69705;44.686;37.628;2023-09-07T04:41:43;21.81;61.75
76857;DHT22;69705;44.686;37.628;2023-09-07T04:44:10;21.93;61.15
76857;DHT22;69705;44.686;37.628;2023-09-07T04:46:36;22.04;60.76
76857;DHT22;69705;44.686;37.628;2023-09-07T04:49:05;22.13;60.38
76857;DHT22;69705;44.686;37.628;2023-09-07T04:51:32;22.24;60.28
76857;DHT22;69705;44.686;37.628;2023-09-07T04:53:58;22.32;59.16
76857;DHT22;69705;44.686;37.628;2023-09-07T04:56:25;22.43;59.54
76857;DHT22;69705;44.686;37.628;2023-09-07T04:58:52;22.54;59.03
76857;DHT22;69705;44.686;37.628;2023-09-07T05:01:18;22.64;58.83
76857;DHT22;69705;44.686;37.628;2023-09-07T05:03:45;22.73;58.52
76857;DHT22;69705;44.686;37.628;2023-09-07T05:06:13;22.85;57.93
76857;DHT22;69705;44.686;37.628;2023-09-07T05:08:40;22.95;57.88
76857;DHT22;69705;44.686;37.628;2023-09-07T05:11:06;23.05;57.59
76857;DHT22;69705;44.686;37.628;2023-09-07T05:13:33;23.16;57.06
76857;DHT22;69705;44.686;37.628;2023-09-07T05:16:01;23.27;56.22
76857;DHT22;69705;44.686;37.628;2023-09-07T05:18:28;23.38;55.84
76857;DHT22;69705;44.686;37.628;2023-09-07T05:20:56;23.50;56.03
76857;DHT22;69705;44.686;37.628;2023-09-07T05:23:24;23.59;55.45
76857;DHT22;69705;44.686;37.628;2023-09-07T05:25:54;23.71;55.16
76857;DHT22;69705;44.686;37.628;2023-09-07T05:28:23;23.82;54.35
76857;DHT22;69705;44.686;37.628;2023-09-07T05:30:52;23.92;54.04
76857;DHT22;69705;44.686;37.628;2023-09-07T05:33:21;24.01;54.01
76857;DHT22;69705;44.686;37.628;2023-09-07T05:35:48;24.11;53.56
76857;DHT22;69705;44.686;37.628;2023-09-07T05:38:15;24.21;53.07
76857;DHT22;69705;44.686;37.628;2023-09-07T05:40:44;24.31;52.41
76857;DHT22;69705;44.686;37.628;2023-09-07T05:43:12;24.42;52.72
76857;DHT22;69705;44.686;37.628;2023-09-07T05:45:40;24.53;52.07
76857;DHT22;69705;44.686;37.628;2023-09-07T05:48:08;24.62;52.14
76857;DHT22;69705;44.686;37.628;2023-09-07T05:50:36;24.73;51.01
76857;DHT22;69705;44.686;37.628;2023-09-07T05:53:04;24.84;49.93
76857;DHT22;69705;44.686;37.628;2023-09-07T05:55:32;24.93;49.73
76857;DHT22;69705;44.686;37.628;2023-09-07T05:58:03;25.04;50.40
76857;DHT22;69705;44.686;37.628;2023-09-07T06:00:30;25.15;49.82
76857;DHT22;69705;44.686;37.628;2023-09-07T06:02:57;25.27;50.49
76857;DHT22;69705;44.686;37.628;2023-09-07T06:05:25;25.32;49.00
76857;DHT22;69705;44.686;37.628;2023-09-07T06:07:52;25.40;49.09
76857;DHT22;69705;44.686;37.628;2023-09-07T06:10:19;25.49;49.20
76857;DHT22;69705;44.686;37.628;2023-09-07T06:12:47;25.57;48.44
76857;DHT22;69705;44.686;37.628;2023-09-07T06:15:15;25.61;47.70
76857;DHT22;69705;44.686;37.628;2023-09-07T06:17:42;25.72;47.43
76857;DHT22;69705;44.686;37.628;2023-09-07T06:20:10;25.81;47.54
76857;DHT22;69705;44.686;37.628;2023-09-07T06:22:37;25.88;46.51
76857;DHT22;69705;44.686;37.628;2023-09-07T06:25:03;25.92;45.44
76857;DHT22;69705;44.686;37.628;2023-09-07T06:27:30;26.05;46.33
76857;DHT22;69705;44.686;37.628;2023-09-07T06:29:57;26.18;44.95
76857;DHT22;69705;44.686;37.628;2023-09-07T06:32:24;26.27;44.49
76857;DHT22;69705;44.686;37.628;2023-09-07T06:34:50;26.34;45.66
76857;DHT22;69705;44.686;37.628;2023-09-07T06:37:18;26.39;44.80
76857;DHT22;69705;44.686;37.628;2023-09-07T06:39:45;26.42;44.90
76857;DHT22;69705;44.686;37.628;2023-09-07T06:42:11;26.53;44.63
76857;DHT22;69705;44.686;37.628;2023-09-07T06:44:44;26.61;44.00
76857;DHT22;69705;44.686;37.628;2023-09-07T06:47:12;26.62;44.00
76857;DHT22;69705;44.686;37.628;2023-09-07T06:49:38;26.76;42.95
76857;DHT22;69705;44.686;37.628;2023-09-07T06:52:06;26.78;43.32
76857;DHT22;69705;44.686;37.628;2023-09-07T06:54:34;26.85;43.35
76857;DHT22;69705;44.686;37.628;2023-09-07T06:57:01;26.91;42.71
76857;DHT22;69705;44.686;37.628;2023-09-07T06:59:28;27.00;42.36
76857;DHT22;69705;44.686;37.628;2023-09-07T07:01:54;27.09;41.17
76857;DHT22;69705;44.686;37.628;2023-09-07T07:04:21;27.14;41.26
76857;DHT22;69705;44.686;37.628;2023-09-07T07:06:48;27.21;40.74
76857;DHT22;69705;44.686;37.628;2023-09-07T07:09:15;27.29;41.32
76857;DHT22;69705;44.686;37.628;2023-09-07T07:11:42;27.42;40.66
76857;DHT22;69705;44.686;37.628;2023-09-07T07:14:09;27.53;41.52
76857;DHT22;69705;44.686;37.628;2023-09-07T07:16:38;27.54;41.43
76857;DHT22;69705;44.686;37.628;2023-09-07T07:19:04;27.59;41.67
76857;DHT22;69705;44.686;37.628;2023-09-07T07:21:31;27.71;41.23
76857;DHT22;69705;44.686;37.628;2023-09-07T07:23:59;27.74;41.20
76857;DHT22;69705;44.686;37.628;2023-09-07T07:26:25;27.81;40.99
76857;DHT22;69705;44.686;37.628;2023-09-07T07:28:52;27.95;40.91
76857;DHT22;69705;44.686;37.628;2023-09-07T07:31:19;28.00;40.47
76857;DHT22;69705;44.686;37.628;2023-09-07T07:33:47;28.06;39.15
76857;DHT22;69705;44.686;37.628;2023-09-07T07:36:14;28.11;38.99
76857;DHT22;69705;44.686;37.628;2023-09-07T07:38:41;28.18;39.80
76857;DHT22;69705;44.686;37.628;2023-09-07T07:41:08;28.24;39.12
76857;DHT22;69705;44.686;37.628;2023-09-07T07:43:36;28.33;38.56
76857;DHT22;69705;44.686;37.628;2023-09-07T07:46:03;28.45;38.85
76857;DHT22;69705;44.686;37.628;2023-09-07T07:48:31;28.55;38.19
76857;DHT22;69705;44.686;37.628;2023-09-07T07:51:03;28.65;37.88
76857;DHT22;69705;44.686;37.628;2023-09-07T07:53:32;28.70;36.95
76857;DHT22;69705;44.686;37.628;2023-09-07T07:55:59;28.73;38.03
76857;DHT22;69705;44.686;37.628;2023-09-07T07:58:26;28.83;37.00
76857;DHT22;69705;44.686;37.628;2023-09-07T08:00:53;28.92;37.34
76857;DHT22;69705;44.686;37.628;2023-09-07T08:03:27;29.02;36.30
76857;DHT22;69705;44.686;37.628;2023-09-07T08:05:54;29.14;36.25
76857;DHT22;69705;44.686;37.628;2023-09-07T08:08:21;29.19;35.18
76857;DHT22;69705;44.686;37.628;2023-09-07T08:10:48;29.22;36.07
76857;DHT22;69705;44.686;37.628;2023-09-07T08:13:15;29.36;35.81
76857;DHT22;69705;44.686;37.628;2023-09-07T08:15:42;29.52;34.86
76857;DHT22;69705;44.686;37.628;2023-09-07T08:18:10;29.62;34.34
76857;DHT22;69705;44.686;37.628;2023-09-07T08:20:37;29.71;33.22
76857;DHT22;69705;44.686;37.628;2023-09-07T08:23:05;29.67;32.72
76857;DHT22;69705;44.686;37.628;2023-09-07T08:25:34;29.81;34.17
76857;DHT22;69705;44.686;37.628;2023-09-07T08:28:01;29.91;33.71
76857;DHT22;69705;44.686;37.628;2023-09-07T08:30:33;30.02;31.16
76857;DHT22;69705;44.686;37.628;2023-09-07T08:33:00;30.08;31.26
76857;DHT22;69705;44.686;37.628;2023-09-07T08:35:33;30.18;31.34
76857;DHT22;69705;44.686;37.628;2023-09-07T08:38:02;30.32;31.83
76857;DHT22;69705;44.686;37.628;2023-09-07T08:40:32;30.41;30.82
76857;DHT22;69705;44.686;37.628;2023-09-07T08:43:04;30.52;31.07
76857;DHT22;69705;44.686;37.628;2023-09-07T08:45:40;30.65;31.19
76857;DHT22;69705;44.686;37.628;2023-09-07T08:48:08;30.77;31.77
76857;DHT22;69705;44.686;37.628;2023-09-07T08:50:36;30.90;30.92
76857;DHT22;69705;44.686;37.628;2023-09-07T08:53:04;30.97;31.65
76857;DHT22;69705;44.686;37.628;2023-09-07T08:55:31;31.13;31.48
76857;DHT22;69705;44.686;37.628;2023-09-07T08:57:58;31.34;30.45
76857;DHT22;69705;44.686;37.628;2023-09-07T09:00:25;31.38;30.47
76857;DHT22;69705;44.686;37.628;2023-09-07T09:02:53;31.54;30.54
76857;DHT22;69705;44.686;37.628;2023-09-07T09:05:20;31.55;28.72
76857;DHT22;69705;44.686;37.628;2023-09-07T09:07:47;31.58;29.16
76857;DHT22;69705;44.686;37.628;2023-09-07T09:10:14;31.64;29.70
76857;DHT22;69705;44.686;37.628;2023-09-07T09:12:47;31.71;29.98
76857;DHT22;69705;44.686;37.628;2023-09-07T09:15:13;31.71;29.02
76857;DHT22;69705;44.686;37.628;2023-09-07T09:17:41;31.86;30.25
76857;DHT22;69705;44.686;37.628;2023-09-07T09:20:23;32.07;29.50
76857;DHT22;69705;44.686;37.628;2023-09-07T09:22:51;32.14;30.27
76857;DHT22;69705;44.686;37.628;2023-09-07T09:25:18;32.19;29.84
76857;DHT22;69705;44.686;37.628;2023-09-07T09:27:46;32.32;29.25
76857;DHT22;69705;44.686;37.628;2023-09-07T09:30:14;32.30;29.19
76857;DHT22;69705;44.686;37.628;2023-09-07T09:32:43;32.39;29.43
76857;DHT22;69705;44.686;37.628;2023-09-07T09:35:10;32.39;29.03
76857;DHT22;69705;44.686;37.628;2023-09-07T09:37:47;32.38;28.88
76857;DHT22;69705;44.686;37.628;2023-09-07T09:40:15;32.46;29.58
76857;DHT22;69705;44.686;37.628;2023-09-07T09:42:44;32.53;30.06
76857;DHT22;69705;44.686;37.628;2023-09-07T09:45:11;32.60;29.65
76857;DHT22;69705;44.686;37.628;2023-09-07T09:47:40;32.61;28.45
76857;DHT22;69705;44.686;37.628;2023-09-07T09:50:11;32.60;28.67
76857;DHT22;69705;44.686;37.628;2023-09-07T09:52:38;32.57;28.69
76857;DHT22;69705;44.686;37.628;2023-09-07T09:55:06;32.61;30.13
76857;DHT22;69705;44.686;37.628;2023-09-07T09:57:35;32.68;28.88
76857;DHT22;69705;44.686;37.628;2023-09-07T10:00:06;32.83;29.01
76857;DHT22;69705;44.686;37.628;2023-09-07T10:02:49;32.93;28.81
76857;DHT22;69705;44.686;37.628;2023-09-07T10:05:18;33.19;28.26
76857;DHT22;69705;44.686;37.628;2023-09-07T10:07:48;33.06;29.10
76857;DHT22;69705;44.686;37.628;2023-09-07T10:10:19;33.18;28.97
76857;DHT22;69705;44.686;37.628;2023-09-07T10:12:55;33.19;28.32
76857;DHT22;69705;44.686;37.628;2023-09-07T10:15:26;33.18;27.99
76857;DHT22;69705;44.686;37.628;2023-09-07T10:23:15;33.17;27.98
76857;DHT22;69705;44.686;37.628;2023-09-07T10:25:42;33.17;28.52
76857;DHT22;69705;44.686;37.628;2023-09-07T10:28:19;33.33;28.10
76857;DHT22;69705;44.686;37.628;2023-09-07T10:31:04;33.23;27.79
76857;DHT22;69705;44.686;37.628;2023-09-07T10:33:34;33.22;27.36
76857;DHT22;69705;44.686;37.628;2023-09-07T10:36:02;33.12;27.94
76857;DHT22;69705;44.686;37.628;2023-09-07T10:38:34;33.21;28.23
76857;DHT22;69705;44.686;37.628;2023-09-07T10:41:03;33.32;27.97
76857;DHT22;69705;44.686;37.628;2023-09-07T10:43:32;33.38;27.58
76857;DHT22;69705;44.686;37.628;2023-09-07T10:46:00;33.32;27.22
76857;DHT22;69705;44.686;37.628;2023-09-07T10:48:33;33.28;28.20
76857;DHT22;69705;44.686;37.628;2023-09-07T10:51:00;33.19;27.24
76857;DHT22;69705;44.686;37.628;2023-09-07T10:53:31;33.17;29.13
76857;DHT22;69705;44.686;37.628;2023-09-07T10:56:03;33.48;28.08
76857;DHT22;69705;44.686;37.628;2023-09-07T10:58:33;33.56;27.87
76857;DHT22;69705;44.686;37.628;2023-09-07T11:01:00;33.56;27.20
76857;DHT22;69705;44.686;37.628;2023-09-07T11:03:28;33.58;26.79
76857;DHT22;69705;44.686;37.628;2023-09-07T11:06:02;33.52;27.84
76857;DHT22;69705;44.686;37.628;2023-09-07T11:08:30;33.51;27.80
76857;DHT22;69705;44.686;37.628;2023-09-07T11:10:58;33.48;28.26
76857;DHT22;69705;44.686;37.628;2023-09-07T11:13:25;33.48;27.00
76857;DHT22;69705;44.686;37.628;2023-09-07T11:15:56;33.45;28.00
76857;DHT22;69705;44.686;37.628;2023-09-07T11:18:24;33.38;28.93
76857;DHT22;69705;44.686;37.628;2023-09-07T11:20:52;33.29;28.16
76857;DHT22;69705;44.686;37.628;2023-09-07T11:23:21;33.35;28.48
76857;DHT22;69705;44.686;37.628;2023-09-07T11:25:48;33.38;28.04
76857;DHT22;69705;44.686;37.628;2023-09-07T11:28:17;33.29;27.91
76857;DHT22;69705;44.686;37.628;2023-09-07T11:30:54;33.26;27.86
76857;DHT22;69705;44.686;37.628;2023-09-07T11:33:22;33.21;28.10
76857;DHT22;69705;44.686;37.628;2023-09-07T11:35:49;33.16;28.00
76857;DHT22;69705;44.686;37.628;2023-09-07T11:38:17;33.22;28.18
76857;DHT22;69705;44.686;37.628;2023-09-07T11:40:44;33.25;26.84
76857;DHT22;69705;44.686;37.628;2023-09-07T11:43:15;33.27;26.88
76857;DHT22;69705;44.686;37.628;2023-09-07T11:45:43;33.29;27.13
76857;DHT22;69705;44.686;37.628;2023-09-07T11:48:10;33.29;27.06
76857;DHT22;69705;44.686;37.628;2023-09-07T11:50:38;33.17;27.20
76857;DHT22;69705;44.686;37.628;2023-09-07T11:53:05;33.17;27.56
76857;DHT22;69705;44.686;37.628;2023-09-07T11:55:37;33.17;27.65
76857;DHT22;69705;44.686;37.628;2023-09-07T11:58:05;33.15;27.94
76857;DHT22;69705;44.686;37.628;2023-09-07T12:00:32;32.99;27.87
76857;DHT22;69705;44.686;37.628;2023-09-07T12:02:59;33.00;28.05
76857;DHT22;69705;44.686;37.628;2023-09-07T12:05:26;33.06;28.57
76857;DHT22;69705;44.686;37.628;2023-09-07T12:07:54;33.11;27.26
76857;DHT22;69705;44.686;37.628;2023-09-07T12:10:21;33.17;28.28
76857;DHT22;69705;44.686;37.628;2023-09-07T12:12:47;33.08;28.00
76857;DHT22;69705;44.686;37.628;2023-09-07T12:15:14;33.04;27.20
76857;DHT22;69705;44.686;37.628;2023-09-07T12:17:40;32.90;27.58
76857;DHT22;69705;44.686;37.628;2023-09-07T12:20:08;32.91;27.22
76857;DHT22;69705;44.686;37.628;2023-09-07T12:22:37;32.96;27.96
76857;DHT22;69705;44.686;37.628;2023-09-07T12:25:07;32.90;27.35
76857;DHT22;69705;44.686;37.628;2023-09-07T12:27:34;32.79;28.36
76857;DHT22;69705;44.686;37.628;2023-09-07T12:30:04;32.66;27.77
76857;DHT22;69705;44.686;37.628;2023-09-07T12:32:34;32.59;28.65
76857;DHT22;69705;44.686;37.628;2023-09-07T12:35:01;32.66;28.19
76857;DHT22;69705;44.686;37.628;2023-09-07T12:37:28;32.68;27.34
76857;DHT22;69705;44.686;37.628;2023-09-07T12:39:54;32.43;28.87
76857;DHT22;69705;44.686;37.628;2023-09-07T12:42:21;32.29;28.79
76857;DHT22;69705;44.686;37.628;2023-09-07T12:44:48;31.97;29.11
76857;DHT22;69705;44.686;37.628;2023-09-07T12:47:14;31.84;30.26
76857;DHT22;69705;44.686;37.628;2023-09-07T12:49:41;31.94;30.45
76857;DHT22;69705;44.686;37.628;2023-09-07T12:52:08;31.90;31.25
76857;DHT22;69705;44.686;37.628;2023-09-07T12:54:36;31.93;31.95
76857;DHT22;69705;44.686;37.628;2023-09-07T12:57:03;31.76;31.99
76857;DHT22;69705;44.686;37.628;2023-09-07T12:59:30;31.67;32.80
76857;DHT22;69705;44.686;37.628;2023-09-07T13:01:57;31.34;34.20
76857;DHT22;69705;44.686;37.628;2023-09-07T13:04:23;31.20;34.51
76857;DHT22;69705;44.686;37.628;2023-09-07T13:06:50;31.24;35.53
76857;DHT22;69705;44.686;37.628;2023-09-07T13:09:17;31.27;35.59
76857;DHT22;69705;44.686;37.628;2023-09-07T13:11:43;31.23;36.87
76857;DHT22;69705;44.686;37.628;2023-09-07T13:14:10;31.11;36.93
76857;DHT22;69705;44.686;37.628;2023-09-07T13:16:36;31.07;36.02
76857;DHT22;69705;44.686;37.628;2023-09-07T13:19:03;31.01;36.78
76857;DHT22;69705;44.686;37.628;2023-09-07T13:21:30;30.87;37.55
76857;DHT22;69705;44.686;37.628;2023-09-07T13:23:57;30.80;37.69
76857;DHT22;69705;44.686;37.628;2023-09-07T13:26:23;30.72;38.27
76857;DHT22;69705;44.686;37.628;2023-09-07T13:28:50;30.65;38.00
76857;DHT22;69705;44.686;37.628;2023-09-07T13:31:16;30.55;38.89
76857;DHT22;69705;44.686;37.628;2023-09-07T13:33:43;30.40;39.64
76857;DHT22;69705;44.686;37.628;2023-09-07T13:36:10;30.21;39.85
76857;DHT22;69705;44.686;37.628;2023-09-07T13:38:37;30.10;39.36
76857;DHT22;69705;44.686;37.628;2023-09-07T13:41:03;29.97;39.62
76857;DHT22;69705;44.686;37.628;2023-09-07T13:43:30;29.85;39.28
76857;DHT22;69705;44.686;37.628;2023-09-07T13:45:57;29.74;39.85
76857;DHT22;69705;44.686;37.628;2023-09-07T13:48:23;29.61;39.87
76857;DHT22;69705;44.686;37.628;2023-09-07T13:50:50;29.52;39.88
76857;DHT22;69705;44.686;37.628;2023-09-07T13:53:16;29.41;40.75
76857;DHT22;69705;44.686;37.628;2023-09-07T13:55:43;29.34;40.64
76857;DHT22;69705;44.686;37.628;2023-09-07T13:58:12;29.28;40.09
76857;DHT22;69705;44.686;37.628;2023-09-07T14:00:39;29.24;40.76
76857;DHT22;69705;44.686;37.628;2023-09-07T14:03:05;29.13;40.75
76857;DHT22;69705;44.686;37.628;2023-09-07T14:05:32;29.02;40.97
76857;DHT22;69705;44.686;37.628;2023-09-07T14:07:59;28.92;41.36
76857;DHT22;69705;44.686;37.628;2023-09-07T14:10:26;28.78;41.18
76857;DHT22;69705;44.686;37.628;2023-09-07T14:12:52;28.69;41.63
76857;DHT22;69705;44.686;37.628;2023-09-07T14:15:19;28.65;42.27
76857;DHT22;69705;44.686;37.628;2023-09-07T14:17:45;28.58;42.04
76857;DHT22;69705;44.686;37.628;2023-09-07T14:20:13;28.53;42.62
76857;DHT22;69705;44.686;37.628;2023-09-07T14:22:40;28.44;42.40
76857;DHT22;69705;44.686;37.628;2023-09-07T14:25:07;28.39;42.84
76857;DHT22;69705;44.686;37.628;2023-09-07T14:27:34;28.40;42.68
76857;DHT22;69705;44.686;37.628;2023-09-07T14:30:01;28.31;42.81
76857;DHT22;69705;44.686;37.628;2023-09-07T14:32:29;28.24;43.77
76857;DHT22;69705;44.686;37.628;2023-09-07T14:34:56;28.13;43.00
76857;DHT22;69705;44.686;37.628;2023-09-07T14:37:22;28.01;43.18
76857;DHT22;69705;44.686;37.628;2023-09-07T14:39:49;27.97;43.12
76857;DHT22;69705;44.686;37.628;2023-09-07T14:42:17;27.95;43.05
76857;DHT22;69705;44.686;37.628;2023-09-07T14:44:46;27.86;43.16
76857;DHT22;69705;44.686;37.628;2023-09-07T14:47:13;27.73;42.76
76857;DHT22;69705;44.686;37.628;2023-09-07T14:49:40;27.69;42.54
76857;DHT22;69705;44.686;37.628;2023-09-07T14:52:07;27.64;42.90
76857;DHT22;69705;44.686;37.628;2023-09-07T14:54:34;27.55;43.26
76857;DHT22;69705;44.686;37.628;2023-09-07T14:57:01;27.52;43.24
76857;DHT22;69705;44.686;37.628;2023-09-07T14:59:29;27.46;43.29
76857;DHT22;69705;44.686;37.628;2023-09-07T15:01:56;27.41;43.71
76857;DHT22;69705;44.686;37.628;2023-09-07T15:04:23;27.32;43.35
76857;DHT22;69705;44.686;37.628;2023-09-07T15:06:50;27.30;43.40
76857;DHT22;69705;44.686;37.628;2023-09-07T15:09:17;27.21;44.06
76857;DHT22;69705;44.686;37.628;2023-09-07T15:11:43;27.16;44.25
76857;DHT22;69705;44.686;37.628;2023-09-07T15:14:10;27.13;44.74
76857;DHT22;69705;44.686;37.628;2023-09-07T15:16:37;27.06;45.25
76857;DHT22;69705;44.686;37.628;2023-09-07T15:19:04;27.01;45.44
76857;DHT22;69705;44.686;37.628;2023-09-07T15:21:31;26.92;45.80
76857;DHT22;69705;44.686;37.628;2023-09-07T15:23:58;26.82;46.57